Time;durP1;ratioP1;P1;durP2;ratioP2;P2;SDS_P1;SDS_P2;PMS_P1;PMS_P2;Temp;Humidity;BMP_temperature;BMP_pressure;BME280_temperature;BME280_humidity;BME280_pressure;Samples;Min_cycle;Max_cycle;Signal;HPM_P1;HPM_P2
2023/05/28 00:00:00;;;;;;;4.50;3.53;;;;;;;;;;5026518;28;20412;-69
2023/05/28 00:02:26;;;;;;;4.50;3.03;;;;;;;;;;5025933;28;20430;-69
2023/05/28 00:04:52;;;;;;;4.10;3.60;;;;;;;;;;5026727;28;20481;-69
2023/05/28 00:07:21;;;;;;;2.90;2.70;;;;;;;;;;5026461;28;20491;-69
2023/05/28 00:09:48;;;;;;;5.40;3.90;;;;;;;;;;5037594;28;20435;-69
2023/05/28 00:12:14;;;;;;;4.80;3.23;;;;;;;;;;5028743;28;20439;-69
2023/05/28 00:14:40;;;;;;;6.73;3.30;;;;;;;;;;5029995;28;20552;-69
2023/05/28 00:17:06;;;;;;;3.40;3.20;;;;;;;;;;5014142;28;20432;-69
2023/05/28 00:19:33;;;;;;;6.57;3.93;;;;;;;;;;5022176;28;20447;-70
2023/05/28 00:21:59;;;;;;;6.00;4.00;;;;;;;;;;5025993;28;20509;-69
2023/05/28 00:24:25;;;;;;;4.67;4.30;;;;;;;;;;5025920;28;21857;-69
2023/05/28 00:26:51;;;;;;;4.60;3.20;;;;;;;;;;5025636;28;20494;-69
2023/05/28 00:29:17;;;;;;;4.53;3.23;;;;;;;;;;5027361;28;20438;-69
2023/05/28 00:31:43;;;;;;;4.60;3.60;;;;;;;;;;5023862;28;20477;-69
2023/05/28 00:34:09;;;;;;;4.57;3.70;;;;;;;;;;5025708;28;20535;-69
2023/05/28 00:36:35;;;;;;;4.70;3.30;;;;;;;;;;5026163;28;20446;-69
2023/05/28 00:39:04;;;;;;;7.97;3.57;;;;;;;;;;5026052;28;20482;-69
2023/05/28 00:41:31;;;;;;;3.03;2.67;;;;;;;;;;5024681;28;20435;-69
2023/05/28 00:43:57;;;;;;;4.20;3.67;;;;;;;;;;5025547;28;20427;-68
2023/05/28 00:46:23;;;;;;;6.03;3.77;;;;;;;;;;5025499;28;20486;-69
2023/05/28 00:48:50;;;;;;;4.00;3.47;;;;;;;;;;5025393;28;20448;-69
2023/05/28 00:51:17;;;;;;;7.90;3.90;;;;;;;;;;5024134;28;21174;-69
2023/05/28 00:53:43;;;;;;;10.43;4.87;;;;;;;;;;5025085;28;20923;-69
2023/05/28 00:56:12;;;;;;;4.50;3.30;;;;;;;;;;5025450;28;21872;-69
2023/05/28 00:58:41;;;;;;;4.63;3.50;;;;;;;;;;5025785;28;20454;-69
2023/05/28 01:01:09;;;;;;;8.00;4.03;;;;;;;;;;5021115;28;20439;-69
2023/05/28 01:03:38;;;;;;;3.97;3.77;;;;;;;;;;5024759;28;20423;-69
2023/05/28 01:06:09;;;;;;;4.50;2.80;;;;;;;;;;5025182;28;20483;-69
2023/05/28 01:08:35;;;;;;;3.37;3.10;;;;;;;;;;5025418;28;20427;-69
2023/05/28 01:11:01;;;;;;;6.20;2.93;;;;;;;;;;5024005;28;20471;-69
2023/05/28 01:13:28;;;;;;;9.33;3.57;;;;;;;;;;5023966;28;20965;-69
2023/05/28 01:15:53;;;;;;;7.00;3.00;;;;;;;;;;5024703;28;20806;-69
2023/05/28 01:18:20;;;;;;;8.10;3.63;;;;;;;;;;5025789;28;20431;-69
2023/05/28 01:20:46;;;;;;;4.83;4.33;;;;;;;;;;5025471;28;20423;-69
2023/05/28 01:23:16;;;;;;;7.37;3.57;;;;;;;;;;5024360;28;20458;-70
2023/05/28 01:25:44;;;;;;;5.67;3.70;;;;;;;;;;5025098;28;20542;-69
2023/05/28 01:28:14;;;;;;;7.20;4.27;;;;;;;;;;5024799;28;21028;-69
2023/05/28 01:30:40;;;;;;;9.47;4.77;;;;;;;;;;5024856;28;20519;-68
2023/05/28 01:33:07;;;;;;;10.73;4.00;;;;;;;;;;5023993;28;20430;-69
2023/05/28 01:35:33;;;;;;;6.33;4.37;;;;;;;;;;5024922;28;20869;-69
2023/05/28 01:38:01;;;;;;;10.80;4.00;;;;;;;;;;5024790;28;20450;-69
2023/05/28 01:40:28;;;;;;;5.77;4.20;;;;;;;;;;5024913;28;20513;-69
2023/05/28 01:42:55;;;;;;;4.17;3.80;;;;;;;;;;5024485;28;20449;-69
2023/05/28 01:45:22;;;;;;;4.20;3.80;;;;;;;;;;5024415;28;20959;-69
2023/05/28 01:47:48;;;;;;;7.13;3.70;;;;;;;;;;5025193;28;20495;-69
2023/05/28 01:50:14;;;;;;;5.40;3.20;;;;;;;;;;5027293;28;20465;-69
2023/05/28 01:52:40;;;;;;;4.53;4.13;;;;;;;;;;5023860;28;20448;-69
2023/05/28 01:55:08;;;;;;;4.40;3.73;;;;;;;;;;5024018;28;20526;-69
2023/05/28 01:57:34;;;;;;;4.67;3.30;;;;;;;;;;5025045;28;20447;-69
2023/05/28 02:00:00;;;;;;;2.87;2.77;;;;;;;;;;5024589;28;20943;-69
2023/05/28 02:02:26;;;;;;;3.97;3.37;;;;;;;;;;5024017;28;20419;-69
2023/05/28 02:04:53;;;;;;;4.50;3.97;;;;;;;;;;5024534;28;20475;-69
2023/05/28 02:07:19;;;;;;;6.63;3.10;;;;;;;;;;5024303;28;20490;-69
2023/05/28 02:09:45;;;;;;;5.93;3.33;;;;;;;;;;5024664;28;20443;-69
2023/05/28 02:12:12;;;;;;;5.47;3.73;;;;;;;;;;5023354;28;20447;-69
2023/05/28 02:14:38;;;;;;;3.70;3.00;;;;;;;;;;5024076;28;20543;-69
2023/05/28 02:17:04;;;;;;;3.63;2.90;;;;;;;;;;5025615;28;20439;-70
2023/05/28 02:19:32;;;;;;;5.77;3.97;;;;;;;;;;5023600;28;20986;-69
2023/05/28 02:21:58;;;;;;;2.90;2.70;;;;;;;;;;5023197;28;20497;-69
2023/05/28 02:24:24;;;;;;;3.50;3.20;;;;;;;;;;5024019;28;20462;-70
2023/05/28 02:26:51;;;;;;;14.30;3.80;;;;;;;;;;5023233;28;21977;-69
2023/05/28 02:29:17;;;;;;;5.80;3.93;;;;;;;;;;5024158;28;20430;-69
2023/05/28 02:31:42;;;;;;;3.60;3.30;;;;;;;;;;5023433;28;20435;-69
2023/05/28 02:34:09;;;;;;;4.90;3.60;;;;;;;;;;5023722;28;20797;-69
2023/05/28 02:36:36;;;;;;;8.83;3.53;;;;;;;;;;5023314;28;20471;-69
2023/05/28 02:39:03;;;;;;;6.10;2.80;;;;;;;;;;5023861;28;20449;-69
2023/05/28 02:41:29;;;;;;;5.17;3.63;;;;;;;;;;5022711;28;20453;-70
2023/05/28 02:43:55;;;;;;;3.57;3.20;;;;;;;;;;5023958;28;20431;-70
2023/05/28 02:46:21;;;;;;;5.07;4.57;;;;;;;;;;5024634;28;20482;-71
2023/05/28 02:48:47;;;;;;;4.23;3.93;;;;;;;;;;5023562;28;20542;-70
2023/05/28 02:51:13;;;;;;;3.63;3.30;;;;;;;;;;5023792;28;20439;-70
2023/05/28 02:53:39;;;;;;;4.07;3.70;;;;;;;;;;5023078;28;21710;-70
2023/05/28 02:56:05;;;;;;;4.20;3.43;;;;;;;;;;5025038;28;20530;-70
2023/05/28 02:58:32;;;;;;;5.90;4.20;;;;;;;;;;5024227;28;20439;-70
2023/05/28 03:00:58;;;;;;;5.03;3.60;;;;;;;;;;5023530;28;20494;-69
2023/05/28 03:03:24;;;;;;;7.03;4.80;;;;;;;;;;5022856;28;20458;-70
2023/05/28 03:05:51;;;;;;;4.93;4.20;;;;;;;;;;5023371;28;20447;-70
2023/05/28 03:08:17;;;;;;;9.43;4.20;;;;;;;;;;5025295;28;20930;-69
2023/05/28 03:10:43;;;;;;;5.33;4.27;;;;;;;;;;5027439;28;20980;-69
2023/05/28 03:13:09;;;;;;;6.60;3.97;;;;;;;;;;5027171;28;20435;-70
2023/05/28 03:15:35;;;;;;;6.07;4.27;;;;;;;;;;5028587;28;20457;-70
2023/05/28 03:18:01;;;;;;;4.73;4.33;;;;;;;;;;5027426;28;20938;-70
2023/05/28 03:20:28;;;;;;;7.00;4.10;;;;;;;;;;5026686;28;20461;-70
2023/05/28 03:22:58;;;;;;;4.43;3.70;;;;;;;;;;5042147;28;20439;-70
2023/05/28 03:25:25;;;;;;;6.50;4.23;;;;;;;;;;5027736;28;20942;-69
2023/05/28 03:27:51;;;;;;;7.33;3.90;;;;;;;;;;5027147;28;20976;-70
2023/05/28 03:30:17;;;;;;;8.13;4.27;;;;;;;;;;5026419;28;21263;-70
2023/05/28 03:32:42;;;;;;;5.90;4.77;;;;;;;;;;5026775;28;20439;-70
2023/05/28 03:35:09;;;;;;;5.23;3.90;;;;;;;;;;5026883;28;20482;-71
2023/05/28 03:37:35;;;;;;;5.70;4.43;;;;;;;;;;5027198;28;20435;-70
2023/05/28 03:40:00;;;;;;;5.63;3.90;;;;;;;;;;5026417;28;20768;-69
2023/05/28 03:42:26;;;;;;;8.80;4.30;;;;;;;;;;5026646;28;20730;-70
2023/05/28 03:44:52;;;;;;;4.10;3.70;;;;;;;;;;5027961;28;20454;-69
2023/05/28 03:47:18;;;;;;;6.17;3.47;;;;;;;;;;5026235;28;20490;-69
2023/05/28 03:49:44;;;;;;;10.73;3.87;;;;;;;;;;5026751;28;20794;-70
2023/05/28 03:52:10;;;;;;;5.33;3.33;;;;;;;;;;5026865;28;20520;-70
2023/05/28 03:54:36;;;;;;;7.23;4.37;;;;;;;;;;5026303;28;20439;-69
2023/05/28 03:57:02;;;;;;;9.40;4.40;;;;;;;;;;5027289;28;20446;-69
2023/05/28 03:59:28;;;;;;;9.13;3.67;;;;;;;;;;5026539;28;20426;-70
2023/05/28 04:01:54;;;;;;;4.60;4.20;;;;;;;;;;5026605;28;20445;-69
2023/05/28 04:04:20;;;;;;;9.73;3.87;;;;;;;;;;5026916;28;20470;-70
2023/05/28 04:06:46;;;;;;;9.63;3.43;;;;;;;;;;5026379;28;20471;-69
2023/05/28 04:09:12;;;;;;;6.03;3.60;;;;;;;;;;5026124;28;20450;-70
2023/05/28 04:11:38;;;;;;;5.80;4.37;;;;;;;;;;5025515;28;20419;-69
2023/05/28 04:14:04;;;;;;;4.10;3.60;;;;;;;;;;5027785;28;20446;-70
2023/05/28 04:16:31;;;;;;;9.13;3.73;;;;;;;;;;5026766;28;20490;-70
2023/05/28 04:18:57;;;;;;;3.60;3.40;;;;;;;;;;5027173;28;20442;-69
2023/05/28 04:21:24;;;;;;;9.90;3.50;;;;;;;;;;5026806;28;20431;-69
2023/05/28 04:23:51;;;;;;;5.00;3.50;;;;;;;;;;5026498;28;21096;-70
2023/05/28 04:26:20;;;;;;;5.43;3.10;;;;;;;;;;5025801;28;20486;-70
2023/05/28 04:28:46;;;;;;;5.33;3.30;;;;;;;;;;5024440;28;20441;-70
2023/05/28 04:31:12;;;;;;;3.13;2.83;;;;;;;;;;5025926;28;20439;-69
2023/05/28 04:33:38;;;;;;;10.13;3.70;;;;;;;;;;5025322;28;20439;-70
2023/05/28 04:36:07;;;;;;;5.93;2.60;;;;;;;;;;5026097;28;20434;-69
2023/05/28 04:38:33;;;;;;;2.93;2.67;;;;;;;;;;5025590;28;20969;-70
2023/05/28 04:41:00;;;;;;;3.20;3.00;;;;;;;;;;5026844;28;20443;-70
2023/05/28 04:43:26;;;;;;;3.53;3.23;;;;;;;;;;5025550;28;20446;-69
2023/05/28 04:45:53;;;;;;;6.00;3.63;;;;;;;;;;5024045;28;20541;-70
2023/05/28 04:48:19;;;;;;;3.37;3.07;;;;;;;;;;5025201;28;20435;-70
2023/05/28 04:50:45;;;;;;;7.07;3.43;;;;;;;;;;5040845;28;20443;-70
2023/05/28 04:53:11;;;;;;;5.83;3.43;;;;;;;;;;5025484;28;20538;-70
2023/05/28 04:55:40;;;;;;;3.80;3.20;;;;;;;;;;5025107;28;20940;-69
2023/05/28 04:58:06;;;;;;;3.80;3.40;;;;;;;;;;5026337;28;20468;-70
2023/05/28 05:00:34;;;;;;;4.37;2.50;;;;;;;;;;5025884;28;20431;-69
2023/05/28 05:03:00;;;;;;;7.50;3.40;;;;;;;;;;5024718;28;20458;-70
2023/05/28 05:05:26;;;;;;;6.47;3.50;;;;;;;;;;5023470;28;20435;-70
2023/05/28 05:07:52;;;;;;;4.43;3.83;;;;;;;;;;5025150;28;20487;-70
2023/05/28 05:10:18;;;;;;;10.27;4.50;;;;;;;;;;5026048;28;20434;-69
2023/05/28 05:12:44;;;;;;;2.83;2.63;;;;;;;;;;5025142;28;20443;-70
2023/05/28 05:15:10;;;;;;;10.93;3.83;;;;;;;;;;5024989;28;20435;-70
2023/05/28 05:17:36;;;;;;;8.73;3.70;;;;;;;;;;5025250;28;20525;-70
2023/05/28 05:20:04;;;;;;;4.67;4.13;;;;;;;;;;5025319;28;20816;-69
2023/05/28 05:22:31;;;;;;;9.13;3.63;;;;;;;;;;5024767;28;20444;-70
2023/05/28 05:24:57;;;;;;;9.40;3.60;;;;;;;;;;5024192;28;20427;-71
2023/05/28 05:27:23;;;;;;;4.30;3.20;;;;;;;;;;5025233;28;20625;-70
2023/05/28 05:29:49;;;;;;;7.37;4.10;;;;;;;;;;5024841;28;20514;-70
2023/05/28 05:32:15;;;;;;;6.73;4.57;;;;;;;;;;5024190;28;20454;-69
2023/05/28 05:34:41;;;;;;;3.70;3.50;;;;;;;;;;5024938;28;20427;-70
2023/05/28 05:37:07;;;;;;;10.00;3.03;;;;;;;;;;5024442;28;20443;-70
2023/05/28 05:39:33;;;;;;;3.37;3.07;;;;;;;;;;5026340;28;20516;-70
2023/05/28 05:41:59;;;;;;;2.40;2.30;;;;;;;;;;5024132;28;20838;-70
2023/05/28 05:44:25;;;;;;;4.83;3.30;;;;;;;;;;5025070;28;20517;-71
2023/05/28 05:46:51;;;;;;;4.33;3.10;;;;;;;;;;5023152;28;20552;-71
2023/05/28 05:49:17;;;;;;;8.37;4.53;;;;;;;;;;5024057;28;20439;-69
2023/05/28 05:51:43;;;;;;;7.97;3.90;;;;;;;;;;5025044;28;20435;-70
2023/05/28 05:54:09;;;;;;;7.77;4.10;;;;;;;;;;5024439;28;20930;-63
2023/05/28 05:56:35;;;;;;;4.60;3.87;;;;;;;;;;5024140;28;20514;-70
2023/05/28 05:59:01;;;;;;;5.70;3.60;;;;;;;;;;5025554;28;20957;-75
2023/05/28 06:01:29;;;;;;;5.67;2.90;;;;;;;;;;5023584;28;20452;-71
2023/05/28 06:03:56;;;;;;;7.43;3.70;;;;;;;;;;5024029;28;20451;-71
2023/05/28 06:06:22;;;;;;;4.60;3.47;;;;;;;;;;5024129;28;20554;-71
2023/05/28 06:08:47;;;;;;;4.20;3.70;;;;;;;;;;5024149;28;20460;-71
2023/05/28 06:11:14;;;;;;;7.50;3.90;;;;;;;;;;5023680;28;20425;-70
2023/05/28 06:13:41;;;;;;;7.40;3.63;;;;;;;;;;5023892;28;20501;-70
2023/05/28 06:16:07;;;;;;;4.13;3.00;;;;;;;;;;5024834;28;20474;-70
2023/05/28 06:18:33;;;;;;;7.60;3.90;;;;;;;;;;5024291;28;20436;-70
2023/05/28 06:20:59;;;;;;;11.63;3.70;;;;;;;;;;5034559;28;20534;-70
2023/05/28 06:23:25;;;;;;;7.23;4.00;;;;;;;;;;5037311;28;20520;-71
2023/05/28 06:25:52;;;;;;;7.97;4.43;;;;;;;;;;5037589;28;20524;-71
2023/05/28 06:28:18;;;;;;;8.70;4.20;;;;;;;;;;5037765;28;20496;-70
2023/05/28 06:30:44;;;;;;;10.80;4.30;;;;;;;;;;5037567;28;20947;-71
2023/05/28 06:33:10;;;;;;;12.53;4.90;;;;;;;;;;5036627;28;20434;-70
2023/05/28 06:35:36;;;;;;;7.57;4.40;;;;;;;;;;5032218;28;20442;-70
2023/05/28 06:38:03;;;;;;;4.17;3.83;;;;;;;;;;5046236;28;20805;-69
2023/05/28 06:40:29;;;;;;;5.67;3.33;;;;;;;;;;5037759;28;20529;-70
2023/05/28 06:42:55;;;;;;;4.63;3.77;;;;;;;;;;5037644;28;20470;-70
2023/05/28 06:45:20;;;;;;;9.43;3.40;;;;;;;;;;5036822;28;22073;-70
2023/05/28 06:47:47;;;;;;;10.60;3.80;;;;;;;;;;5037258;28;20474;-70
2023/05/28 06:50:13;;;;;;;7.93;3.43;;;;;;;;;;5038618;28;20415;-70
2023/05/28 06:52:40;;;;;;;4.57;3.30;;;;;;;;;;5036799;28;20435;-69
2023/05/28 06:55:07;;;;;;;6.80;4.00;;;;;;;;;;5034661;28;20430;-70
2023/05/28 06:57:36;;;;;;;4.37;3.17;;;;;;;;;;5036804;28;20442;-70
2023/05/28 07:00:03;;;;;;;3.97;3.53;;;;;;;;;;5037620;28;20423;-70
2023/05/28 07:02:29;;;;;;;9.43;4.33;;;;;;;;;;5035347;28;20526;-71
2023/05/28 07:04:55;;;;;;;4.20;4.00;;;;;;;;;;5038172;28;20737;-70
2023/05/28 07:07:21;;;;;;;7.50;3.33;;;;;;;;;;5037176;28;20493;-70
2023/05/28 07:09:47;;;;;;;7.57;3.70;;;;;;;;;;5036824;28;20430;-70
2023/05/28 07:12:13;;;;;;;6.87;3.20;;;;;;;;;;5037507;28;20433;-69
2023/05/28 07:14:39;;;;;;;11.53;4.23;;;;;;;;;;5036668;28;20957;-70
2023/05/28 07:17:05;;;;;;;5.90;3.60;;;;;;;;;;5037028;28;20442;-70
2023/05/28 07:19:31;;;;;;;4.70;4.17;;;;;;;;;;5036676;28;20434;-70
2023/05/28 07:21:57;;;;;;;5.70;3.37;;;;;;;;;;5038113;28;20438;-70
2023/05/28 07:24:23;;;;;;;8.40;3.60;;;;;;;;;;5042701;28;20434;-70
2023/05/28 07:26:49;;;;;;;4.73;3.03;;;;;;;;;;5037300;28;20946;-70
2023/05/28 07:29:18;;;;;;;4.27;3.87;;;;;;;;;;5036013;28;21148;-70
2023/05/28 07:31:44;;;;;;;6.10;3.93;;;;;;;;;;5036082;28;20452;-70
2023/05/28 07:34:10;;;;;;;5.30;3.50;;;;;;;;;;5035632;28;20430;-70
2023/05/28 07:36:37;;;;;;;5.60;3.40;;;;;;;;;;5035361;28;20496;-69
2023/05/28 07:39:03;;;;;;;4.67;3.50;;;;;;;;;;5036435;28;20425;-68
2023/05/28 07:41:30;;;;;;;5.67;3.70;;;;;;;;;;5035575;28;21012;-69
2023/05/28 07:43:56;;;;;;;6.47;3.83;;;;;;;;;;5035994;28;20464;-69
2023/05/28 07:46:22;;;;;;;5.00;4.10;;;;;;;;;;5035541;28;20474;-70
2023/05/28 07:48:49;;;;;;;7.33;4.40;;;;;;;;;;5045745;28;20807;-69
2023/05/28 07:51:15;;;;;;;6.50;3.63;;;;;;;;;;5037205;28;20419;-70
2023/05/28 07:53:41;;;;;;;5.10;4.00;;;;;;;;;;5038377;28;20437;-69
2023/05/28 07:56:08;;;;;;;4.50;3.97;;;;;;;;;;5040015;28;20434;-70
2023/05/28 07:58:34;;;;;;;7.60;3.73;;;;;;;;;;5041007;28;20956;-69
2023/05/28 08:01:00;;;;;;;8.43;3.80;;;;;;;;;;5040341;28;20431;-69
2023/05/28 08:03:27;;;;;;;3.50;2.93;;;;;;;;;;5039867;28;20426;-69
2023/05/28 08:05:53;;;;;;;5.40;3.40;;;;;;;;;;5040926;28;20429;-69
2023/05/28 08:08:19;;;;;;;5.70;3.60;;;;;;;;;;5041133;28;20892;-70
2023/05/28 08:10:45;;;;;;;6.77;3.30;;;;;;;;;;5040235;28;20416;-70
2023/05/28 08:13:11;;;;;;;5.77;3.50;;;;;;;;;;5030893;28;21012;-69
2023/05/28 08:15:37;;;;;;;3.40;3.10;;;;;;;;;;5032623;28;20443;-70
2023/05/28 08:18:03;;;;;;;8.23;3.40;;;;;;;;;;5017318;28;20453;-70
2023/05/28 08:20:29;;;;;;;4.17;3.73;;;;;;;;;;5013498;28;21139;-70
2023/05/28 08:22:56;;;;;;;8.60;4.37;;;;;;;;;;5028735;28;20432;-69
2023/05/28 08:25:21;;;;;;;9.67;3.13;;;;;;;;;;5013862;28;20430;-69
2023/05/28 08:27:48;;;;;;;5.70;3.53;;;;;;;;;;5013055;28;20487;-70
2023/05/28 08:30:14;;;;;;;3.40;3.10;;;;;;;;;;5013027;28;20463;-70
2023/05/28 08:32:40;;;;;;;5.53;3.27;;;;;;;;;;5013349;28;20439;-70
2023/05/28 08:35:06;;;;;;;5.40;4.00;;;;;;;;;;5029306;28;20435;-69
2023/05/28 08:37:32;;;;;;;5.17;2.90;;;;;;;;;;5012726;28;21094;-69
2023/05/28 08:39:58;;;;;;;4.20;3.57;;;;;;;;;;5013303;28;20440;-70
2023/05/28 08:42:27;;;;;;;2.30;2.30;;;;;;;;;;5013096;28;21046;-69
2023/05/28 08:44:53;;;;;;;10.43;3.13;;;;;;;;;;5013978;28;20431;-71
2023/05/28 08:47:19;;;;;;;6.30;3.70;;;;;;;;;;5027246;28;20494;-71
2023/05/28 08:49:52;;;;;;;3.40;3.10;;;;;;;;;;5012976;28;20514;-70
2023/05/28 08:52:19;;;;;;;3.97;3.60;;;;;;;;;;5016328;28;20427;-70
2023/05/28 08:54:46;;;;;;;9.93;3.30;;;;;;;;;;5024051;28;20478;-71
2023/05/28 08:57:12;;;;;;;3.07;2.87;;;;;;;;;;5024998;28;21862;-70
2023/05/28 08:59:38;;;;;;;9.23;3.90;;;;;;;;;;5024809;28;20474;-71
2023/05/28 09:02:05;;;;;;;5.13;3.50;;;;;;;;;;5025141;28;20462;-72
2023/05/28 09:04:31;;;;;;;2.90;2.70;;;;;;;;;;5025918;28;20435;-71
2023/05/28 09:06:56;;;;;;;6.10;3.03;;;;;;;;;;5025228;28;20482;-70
2023/05/28 09:09:24;;;;;;;5.40;3.20;;;;;;;;;;5023044;28;20482;-70
2023/05/28 09:11:51;;;;;;;5.37;2.70;;;;;;;;;;5027171;28;20438;-71
2023/05/28 09:14:18;;;;;;;6.20;3.47;;;;;;;;;;5025328;28;20526;-70
2023/05/28 09:16:45;;;;;;;3.57;3.37;;;;;;;;;;5030154;28;20430;-70
2023/05/28 09:19:11;;;;;;;10.07;3.17;;;;;;;;;;5025770;28;20973;-71
2023/05/28 09:21:37;;;;;;;3.37;2.70;;;;;;;;;;5022815;28;20477;-70
2023/05/28 09:24:05;;;;;;;7.27;3.67;;;;;;;;;;5025008;28;20427;-70
2023/05/28 09:26:31;;;;;;;4.10;2.90;;;;;;;;;;5024307;28;20495;-70
2023/05/28 09:28:57;;;;;;;3.43;2.93;;;;;;;;;;5024562;28;20436;-71
2023/05/28 09:31:33;;;;;;;4.97;4.50;;;;;;;;;;5024249;28;20440;-70
2023/05/28 09:34:01;;;;;;;3.70;3.40;;;;;;;;;;5024404;28;20953;-69
2023/05/28 09:36:30;;;;;;;4.13;3.73;;;;;;;;;;5039954;28;20439;-71
2023/05/28 09:38:56;;;;;;;33.70;4.33;;;;;;;;;;5024151;28;20427;-70
2023/05/28 09:41:23;;;;;;;5.93;3.03;;;;;;;;;;5024149;28;20432;-72
2023/05/28 09:44:02;;;;;;;8.10;5.40;;;;;;;;;;5024780;28;20524;-70
2023/05/28 09:46:32;;;;;;;4.10;2.60;;;;;;;;;;5024554;28;20821;-70
2023/05/28 09:48:59;;;;;;;6.83;3.40;;;;;;;;;;5024126;28;20447;-72
2023/05/28 09:51:28;;;;;;;10.80;3.87;;;;;;;;;;5023536;28;20442;-70
2023/05/28 09:54:02;;;;;;;5.13;3.20;;;;;;;;;;5023923;28;20533;-70
2023/05/28 09:56:30;;;;;;;7.77;3.60;;;;;;;;;;5024631;28;20453;-70
2023/05/28 09:58:59;;;;;;;5.47;3.57;;;;;;;;;;5024145;28;20440;-71
2023/05/28 10:01:27;;;;;;;21.90;2.90;;;;;;;;;;5023700;28;20431;-70
2023/05/28 10:04:01;;;;;;;5.40;3.40;;;;;;;;;;5023876;28;20462;-70
2023/05/28 10:06:27;;;;;;;3.43;2.97;;;;;;;;;;5022217;28;20486;-70
2023/05/28 10:08:54;;;;;;;9.20;3.60;;;;;;;;;;5023511;28;20454;-70
2023/05/28 10:11:28;;;;;;;6.13;3.50;;;;;;;;;;5022343;28;20463;-70
2023/05/28 10:13:55;;;;;;;3.33;3.10;;;;;;;;;;5023409;28;20478;-70
2023/05/28 10:16:22;;;;;;;4.50;2.30;;;;;;;;;;5039264;28;20454;-70
2023/05/28 10:18:49;;;;;;;11.30;3.70;;;;;;;;;;5023414;28;20416;-70
2023/05/28 10:21:15;;;;;;;4.63;3.57;;;;;;;;;;5023462;28;20482;-70
2023/05/28 10:23:42;;;;;;;11.37;3.40;;;;;;;;;;5023465;28;20510;-70
2023/05/28 10:26:08;;;;;;;2.67;2.43;;;;;;;;;;5024230;28;20403;-70
2023/05/28 10:28:34;;;;;;;5.30;3.57;;;;;;;;;;5023857;28;20431;-70
2023/05/28 10:31:04;;;;;;;4.40;2.93;;;;;;;;;;5023698;28;20427;-70
2023/05/28 10:33:31;;;;;;;7.13;3.87;;;;;;;;;;5023750;28;20485;-70
2023/05/28 10:35:59;;;;;;;4.33;3.20;;;;;;;;;;5024099;28;20419;-70
2023/05/28 10:38:27;;;;;;;2.90;2.70;;;;;;;;;;5023274;28;20501;-71
2023/05/28 10:40:59;;;;;;;3.97;3.10;;;;;;;;;;5023677;28;20441;-70
2023/05/28 10:43:41;;;;;;;6.87;4.17;;;;;;;;;;5038810;28;20431;-71
2023/05/28 10:46:18;;;;;;;7.43;3.43;;;;;;;;;;5023618;28;20536;-70
2023/05/28 10:49:07;;;;;;;3.53;3.33;;;;;;;;;;5022260;28;20458;-70
2023/05/28 10:51:48;;;;;;;4.73;3.47;;;;;;;;;;5021850;28;20899;-70
2023/05/28 10:54:37;;;;;;;4.13;3.40;;;;;;;;;;5023294;28;20449;-69
2023/05/28 10:57:17;;;;;;;5.90;3.47;;;;;;;;;;5022866;28;20502;-70
2023/05/28 10:59:42;;;;;;;4.83;3.87;;;;;;;;;;5023970;28;20427;-69
2023/05/28 11:02:08;;;;;;;2.80;2.70;;;;;;;;;;5023183;28;20486;-70
2023/05/28 11:04:35;;;;;;;5.70;3.30;;;;;;;;;;5023784;28;20431;-70
2023/05/28 11:07:01;;;;;;;3.70;3.27;;;;;;;;;;5023388;28;20490;-70
2023/05/28 11:09:28;;;;;;;2.60;2.50;;;;;;;;;;5023225;28;20438;-70
2023/05/28 11:11:57;;;;;;;4.50;3.17;;;;;;;;;;5023072;28;20432;-70
2023/05/28 11:14:23;;;;;;;4.63;3.83;;;;;;;;;;5023644;28;20411;-69
2023/05/28 11:16:49;;;;;;;3.80;2.80;;;;;;;;;;5023406;28;20508;-70
2023/05/28 11:19:15;;;;;;;3.00;2.80;;;;;;;;;;5023403;28;21607;-70
2023/05/28 11:21:51;;;;;;;3.20;3.00;;;;;;;;;;5022736;28;20426;-70
2023/05/28 11:24:17;;;;;;;3.03;2.70;;;;;;;;;;5023073;28;20791;-70
2023/05/28 11:26:43;;;;;;;11.07;2.90;;;;;;;;;;5022191;28;20508;-70
2023/05/28 11:29:10;;;;;;;6.87;4.47;;;;;;;;;;5024778;28;20518;-70
2023/05/28 11:31:39;;;;;;;3.53;3.20;;;;;;;;;;5027004;28;20827;-69
2023/05/28 11:34:05;;;;;;;3.57;2.60;;;;;;;;;;5026370;28;20999;-70
2023/05/28 11:36:32;;;;;;;5.53;2.57;;;;;;;;;;5026787;28;20915;-70
2023/05/28 11:39:02;;;;;;;3.80;3.13;;;;;;;;;;5026747;28;20548;-71
2023/05/28 11:41:28;;;;;;;2.83;2.67;;;;;;;;;;5026783;28;20423;-71
2023/05/28 11:43:54;;;;;;;6.40;2.90;;;;;;;;;;5026530;28;20422;-70
2023/05/28 11:46:22;;;;;;;4.30;3.27;;;;;;;;;;5026813;28;20486;-71
2023/05/28 11:48:48;;;;;;;4.90;3.20;;;;;;;;;;5026879;28;20427;-71
2023/05/28 11:51:14;;;;;;;4.47;3.40;;;;;;;;;;5026775;28;20415;-70
2023/05/28 11:53:40;;;;;;;4.07;3.07;;;;;;;;;;5041500;28;20439;-70
2023/05/28 11:56:06;;;;;;;8.50;3.40;;;;;;;;;;5026427;28;20434;-70
2023/05/28 11:58:33;;;;;;;2.80;2.70;;;;;;;;;;5026425;28;20526;-70
2023/05/28 12:00:59;;;;;;;7.20;2.77;;;;;;;;;;5026400;28;20420;-71
2023/05/28 12:03:28;;;;;;;18.30;3.53;;;;;;;;;;5041261;28;20477;-71
2023/05/28 12:05:54;;;;;;;6.17;3.47;;;;;;;;;;5026755;28;21083;-70
2023/05/28 12:08:20;;;;;;;2.60;2.50;;;;;;;;;;5025907;28;20494;-70
2023/05/28 12:10:46;;;;;;;2.33;2.23;;;;;;;;;;5026356;28;20427;-70
2023/05/28 12:13:15;;;;;;;6.27;3.00;;;;;;;;;;5026540;28;20926;-70
2023/05/28 12:15:41;;;;;;;4.40;3.20;;;;;;;;;;5026187;28;20489;-70
2023/05/28 12:18:07;;;;;;;7.50;3.00;;;;;;;;;;5026486;28;20435;-69
2023/05/28 12:20:34;;;;;;;6.30;2.97;;;;;;;;;;5025264;28;20762;-70
2023/05/28 12:23:00;;;;;;;3.07;2.53;;;;;;;;;;5025605;28;20434;-71
2023/05/28 12:25:26;;;;;;;3.83;3.10;;;;;;;;;;5026002;28;20427;-70
2023/05/28 12:27:52;;;;;;;4.60;2.73;;;;;;;;;;5026043;28;20307;-71
2023/05/28 12:30:18;;;;;;;3.13;2.70;;;;;;;;;;5025490;28;20452;-70
2023/05/28 12:32:44;;;;;;;3.67;2.70;;;;;;;;;;5024949;28;20451;-71
2023/05/28 12:35:10;;;;;;;5.20;3.63;;;;;;;;;;5025808;28;20830;-70
2023/05/28 12:37:36;;;;;;;6.17;3.00;;;;;;;;;;5025532;28;20478;-70
2023/05/28 12:40:03;;;;;;;3.93;3.00;;;;;;;;;;5025083;28;20479;-71
2023/05/28 12:42:29;;;;;;;16.00;3.60;;;;;;;;;;5031884;28;21888;-70
2023/05/28 12:44:55;;;;;;;4.60;2.97;;;;;;;;;;5040125;28;20922;-70
2023/05/28 12:47:21;;;;;;;7.30;3.50;;;;;;;;;;5039940;28;20494;-71
2023/05/28 12:49:47;;;;;;;7.10;3.73;;;;;;;;;;5039819;28;20418;-71
2023/05/28 12:52:13;;;;;;;3.63;2.77;;;;;;;;;;5039550;28;21076;-70
2023/05/28 12:54:40;;;;;;;2.60;2.40;;;;;;;;;;5039331;28;20950;-70
2023/05/28 12:57:06;;;;;;;4.73;3.07;;;;;;;;;;5037656;28;21621;-71
2023/05/28 12:59:32;;;;;;;4.73;3.50;;;;;;;;;;5027324;28;20442;-70
2023/05/28 13:01:58;;;;;;;3.63;3.30;;;;;;;;;;5019136;28;20439;-70
2023/05/28 13:04:24;;;;;;;2.77;2.20;;;;;;;;;;5039691;28;20429;-70
2023/05/28 13:06:51;;;;;;;3.80;3.20;;;;;;;;;;5040115;28;20473;-70
2023/05/28 13:09:17;;;;;;;6.53;3.17;;;;;;;;;;5025368;28;20876;-70
2023/05/28 13:11:43;;;;;;;5.17;3.50;;;;;;;;;;5029920;28;20431;-70
2023/05/28 13:14:10;;;;;;;3.20;2.90;;;;;;;;;;5023437;28;20455;-70
2023/05/28 13:16:36;;;;;;;2.10;2.00;;;;;;;;;;5019884;28;21142;-70
2023/05/28 13:19:03;;;;;;;3.00;2.80;;;;;;;;;;5033882;28;20442;-70
2023/05/28 13:21:31;;;;;;;4.40;2.43;;;;;;;;;;5039143;28;20438;-71
2023/05/28 13:24:01;;;;;;;3.17;2.50;;;;;;;;;;5038987;28;20500;-70
2023/05/28 13:26:27;;;;;;;5.07;3.53;;;;;;;;;;5039680;28;21196;-70
2023/05/28 13:28:53;;;;;;;4.30;2.47;;;;;;;;;;5055201;28;20450;-69
2023/05/28 13:31:19;;;;;;;7.03;2.50;;;;;;;;;;5054566;28;20415;-70
2023/05/28 13:33:45;;;;;;;2.77;2.47;;;;;;;;;;5039046;28;20430;-70
2023/05/28 13:36:12;;;;;;;2.40;2.30;;;;;;;;;;5038556;28;20449;-70
2023/05/28 13:38:41;;;;;;;3.30;3.07;;;;;;;;;;5039052;28;20922;-71
2023/05/28 13:41:07;;;;;;;4.10;3.03;;;;;;;;;;5038962;28;20883;-70
2023/05/28 13:43:37;;;;;;;4.07;3.23;;;;;;;;;;5038622;28;20427;-70
2023/05/28 13:46:03;;;;;;;4.53;3.27;;;;;;;;;;5038063;28;20915;-70
2023/05/28 13:48:29;;;;;;;3.33;2.30;;;;;;;;;;5038981;28;20518;-70
2023/05/28 13:50:55;;;;;;;9.20;3.13;;;;;;;;;;5037578;28;20438;-70
2023/05/28 13:53:21;;;;;;;2.77;2.63;;;;;;;;;;5026556;28;20944;-70
2023/05/28 13:55:47;;;;;;;2.70;2.50;;;;;;;;;;5022420;28;20451;-70
2023/05/28 13:58:12;;;;;;;5.20;2.47;;;;;;;;;;5023554;28;20426;-70
2023/05/28 14:00:38;;;;;;;3.27;3.07;;;;;;;;;;5027196;28;20447;-70
2023/05/28 14:03:05;;;;;;;5.50;3.30;;;;;;;;;;5022917;28;21251;-70
2023/05/28 14:05:31;;;;;;;2.60;2.40;;;;;;;;;;5023125;28;20461;-70
2023/05/28 14:07:57;;;;;;;6.00;3.00;;;;;;;;;;5021695;28;20486;-70
2023/05/28 14:10:22;;;;;;;3.07;2.83;;;;;;;;;;5039594;28;20529;-70
2023/05/28 14:12:52;;;;;;;7.70;3.43;;;;;;;;;;5023988;28;20430;-71
2023/05/28 14:15:18;;;;;;;3.50;3.20;;;;;;;;;;5023953;28;20419;-71
2023/05/28 14:17:44;;;;;;;3.73;3.43;;;;;;;;;;5023812;28;20454;-70
2023/05/28 14:20:10;;;;;;;13.00;2.80;;;;;;;;;;5024349;28;20431;-71
2023/05/28 14:22:36;;;;;;;7.53;2.70;;;;;;;;;;5032374;28;20469;-70
2023/05/28 14:25:02;;;;;;;7.07;2.70;;;;;;;;;;5037610;28;20519;-69
2023/05/28 14:27:28;;;;;;;6.13;3.20;;;;;;;;;;5035891;28;20487;-70
2023/05/28 14:29:54;;;;;;;2.03;1.73;;;;;;;;;;5039017;28;20426;-70
2023/05/28 14:32:20;;;;;;;7.50;3.13;;;;;;;;;;5038829;28;20427;-70
2023/05/28 14:34:46;;;;;;;2.83;2.60;;;;;;;;;;5038722;28;20427;-70
2023/05/28 14:37:12;;;;;;;6.57;3.00;;;;;;;;;;5038144;28;20513;-71
2023/05/28 14:39:38;;;;;;;3.47;2.90;;;;;;;;;;5037890;28;20453;-71